createdAt,value
2023-04-16T00:01:37.135Z,10.43
2023-04-16T00:04:03.857Z,10.88
2023-04-16T00:06:30.709Z,10.55
2023-04-16T00:08:57.186Z,8.85
2023-04-16T00:11:23.987Z,11.13
2023-04-16T00:13:50.458Z,12.52
2023-04-16T00:16:17.016Z,13.98
2023-04-16T00:18:43.503Z,9.32
2023-04-16T00:21:09.968Z,10.15
2023-04-16T00:23:36.527Z,11.93
2023-04-16T00:26:02.959Z,7.63
2023-04-16T00:28:29.551Z,11.25
2023-04-16T00:30:56.071Z,10.63
2023-04-16T00:33:24.070Z,10.85
2023-04-16T00:35:51.158Z,11.93
2023-04-16T00:38:17.716Z,11.35
2023-04-16T00:40:44.262Z,12.77
2023-04-16T00:43:10.835Z,10.85
2023-04-16T00:45:37.320Z,12.10
2023-04-16T00:48:04.479Z,12.95
2023-04-16T00:50:31.040Z,12.13
2023-04-16T00:52:58.048Z,5.93
2023-04-16T00:55:24.787Z,13.55
2023-04-16T00:57:51.198Z,11.27
2023-04-16T01:00:17.652Z,12.75
2023-04-16T01:02:44.394Z,11.32
2023-04-16T01:05:11.350Z,12.77
2023-04-16T01:07:37.806Z,10.00
2023-04-16T01:10:04.593Z,13.15
2023-04-16T01:12:31.162Z,13.23
2023-04-16T01:14:57.707Z,11.90
2023-04-16T01:17:24.218Z,8.90
2023-04-16T01:19:50.725Z,11.90
2023-04-16T01:22:17.233Z,14.05
2023-04-16T01:24:44.854Z,9.98
2023-04-16T01:27:11.379Z,12.02
2023-04-16T01:29:37.887Z,13.55
2023-04-16T01:32:04.326Z,14.38
2023-04-16T01:34:30.773Z,15.50
2023-04-16T01:36:57.270Z,12.38
2023-04-16T01:39:23.801Z,13.98
2023-04-16T01:41:50.300Z,10.65
2023-04-16T01:44:16.794Z,14.82
2023-04-16T01:46:44.149Z,15.27
2023-04-16T01:49:10.878Z,8.50
2023-04-16T01:51:37.629Z,14.88
2023-04-16T01:54:04.201Z,11.27
2023-04-16T01:56:30.651Z,12.88
2023-04-16T01:58:57.123Z,12.05
2023-04-16T02:01:24.233Z,15.75
2023-04-16T02:03:52.237Z,15.32
2023-04-16T02:06:18.851Z,15.45
2023-04-16T02:08:45.312Z,8.18
2023-04-16T02:11:11.772Z,15.80
2023-04-16T02:13:38.298Z,14.35
2023-04-16T02:16:05.493Z,17.50
2023-04-16T02:18:32.082Z,15.38
2023-04-16T02:21:02.248Z,15.75
2023-04-16T02:23:28.732Z,17.08
2023-04-16T02:25:55.249Z,15.75
2023-04-16T02:28:21.678Z,16.80
2023-04-16T02:30:48.162Z,17.63
2023-04-16T02:33:14.635Z,15.85
2023-04-16T02:35:41.386Z,17.90
2023-04-16T02:38:08.032Z,18.13
2023-04-16T02:40:34.789Z,16.50
2023-04-16T02:43:01.268Z,18.10
2023-04-16T02:45:27.912Z,15.40
2023-04-16T02:47:54.428Z,14.65
2023-04-16T02:50:21.129Z,18.50
2023-04-16T02:52:47.662Z,20.95
2023-04-16T02:55:14.268Z,19.48
2023-04-16T02:57:42.310Z,19.70
2023-04-16T03:00:09.240Z,20.20
2023-04-16T03:02:36.092Z,20.05
2023-04-16T03:05:03.570Z,19.92
2023-04-16T03:07:30.177Z,19.55
2023-04-16T03:09:56.869Z,19.50
2023-04-16T03:12:23.468Z,20.00
2023-04-16T03:14:52.379Z,19.55
2023-04-16T03:17:18.831Z,18.73
2023-04-16T03:19:45.401Z,18.20
2023-04-16T03:22:11.806Z,18.13
2023-04-16T03:24:38.273Z,18.50
2023-04-16T03:27:04.751Z,21.20
2023-04-16T03:29:31.196Z,20.08
2023-04-16T03:31:57.723Z,17.67
2023-04-16T03:34:24.364Z,19.92
2023-04-16T03:36:50.935Z,20.15
2023-04-16T03:39:17.388Z,17.92
2023-04-16T03:41:43.896Z,18.02
2023-04-16T03:44:10.617Z,17.88
2023-04-16T03:46:37.073Z,18.77
2023-04-16T03:49:03.619Z,19.50
2023-04-16T03:51:30.052Z,20.38
2023-04-16T03:53:56.505Z,20.80
2023-04-16T03:56:22.998Z,19.08
2023-04-16T03:58:49.439Z,20.13
2023-04-16T04:01:15.898Z,22.42
2023-04-16T04:03:42.408Z,20.70
2023-04-16T04:06:09.413Z,20.85
2023-04-16T04:08:35.848Z,22.83
2023-04-16T04:11:02.310Z,24.17
2023-04-16T04:13:28.807Z,23.48
2023-04-16T04:15:55.412Z,23.55
2023-04-16T04:18:21.935Z,22.23
2023-04-16T04:20:48.514Z,23.10
2023-04-16T04:23:15.001Z,24.00
2023-04-16T04:25:41.492Z,23.23
2023-04-16T04:28:07.960Z,23.67
2023-04-16T04:30:35.864Z,24.92
2023-04-16T04:33:02.495Z,23.55
2023-04-16T04:35:29.148Z,25.80
2023-04-16T04:37:55.733Z,24.65
2023-04-16T04:40:22.401Z,23.15
2023-04-16T04:42:49.100Z,24.42
2023-04-16T04:45:16.059Z,24.38
2023-04-16T04:47:42.570Z,26.25
2023-04-16T04:50:09.635Z,25.05
2023-04-16T04:52:36.258Z,24.98
2023-04-16T04:55:02.764Z,23.10
2023-04-16T04:57:29.192Z,24.33
2023-04-16T04:59:55.883Z,24.27
2023-04-16T05:02:22.431Z,23.92
2023-04-16T05:04:48.944Z,25.00
2023-04-16T05:07:15.838Z,24.60
2023-04-16T05:09:42.311Z,24.50
2023-04-16T05:12:08.818Z,25.90
2023-04-16T05:14:36.179Z,26.20
2023-04-16T05:17:02.718Z,26.42
2023-04-16T05:19:29.372Z,24.73
2023-04-16T05:21:56.205Z,24.25
2023-04-16T05:24:23.234Z,25.73
2023-04-16T05:26:49.841Z,24.25
2023-04-16T05:29:16.299Z,24.08
2023-04-16T05:31:42.858Z,24.75
2023-04-16T05:34:09.322Z,23.38
2023-04-16T05:36:35.795Z,25.75
2023-04-16T05:39:02.270Z,23.17
2023-04-16T05:41:29.250Z,24.77
2023-04-16T05:43:55.717Z,25.55
2023-04-16T05:46:22.205Z,26.10
2023-04-16T05:48:48.692Z,25.85
2023-04-16T05:51:15.260Z,24.92
2023-04-16T05:53:42.030Z,25.83
2023-04-16T05:56:08.709Z,26.23
2023-04-16T05:58:35.230Z,25.67
2023-04-16T06:01:01.827Z,24.98
2023-04-16T06:03:28.431Z,28.90
2023-04-16T06:05:55.078Z,27.50
2023-04-16T06:08:21.615Z,27.38
2023-04-16T06:10:48.168Z,25.08
2023-04-16T06:13:14.998Z,25.92
2023-04-16T06:15:41.807Z,26.23
2023-04-16T06:18:08.348Z,27.08
2023-04-16T06:20:34.916Z,25.55
2023-04-16T06:23:01.346Z,26.15
2023-04-16T06:25:27.821Z,26.65
2023-04-16T06:27:54.282Z,24.65
2023-04-16T06:30:20.956Z,26.52
2023-04-16T06:32:48.034Z,24.58
2023-04-16T06:35:14.704Z,27.27
2023-04-16T06:37:41.500Z,26.30
2023-04-16T06:40:08.515Z,25.63
2023-04-16T06:42:34.977Z,25.27
2023-04-16T06:45:01.630Z,24.05
2023-04-16T06:47:28.143Z,26.30
2023-04-16T06:49:54.665Z,25.55
2023-04-16T06:52:21.160Z,27.08
2023-04-16T06:54:48.288Z,26.42
2023-04-16T06:57:14.801Z,27.30
2023-04-16T06:59:41.253Z,26.48
2023-04-16T07:02:10.526Z,26.48
2023-04-16T07:04:37.263Z,25.98
2023-04-16T07:07:03.960Z,26.50
2023-04-16T07:09:30.549Z,25.13
2023-04-16T07:11:57.030Z,27.45
2023-04-16T07:14:23.540Z,25.63
2023-04-16T07:16:50.182Z,27.20
2023-04-16T07:19:16.727Z,25.60
2023-04-16T07:21:43.773Z,25.77
2023-04-16T07:24:11.637Z,26.23
2023-04-16T07:26:38.107Z,25.20
2023-04-16T07:29:04.598Z,26.15
2023-04-16T07:31:31.323Z,24.05
2023-04-16T07:33:58.344Z,26.92
2023-04-16T07:36:25.018Z,26.05
2023-04-16T07:38:51.476Z,25.77
2023-04-16T07:41:18.031Z,24.17
2023-04-16T07:43:44.512Z,23.30
2023-04-16T07:46:11.016Z,26.23
2023-04-16T07:48:37.514Z,23.48
2023-04-16T07:51:04.028Z,24.05
2023-04-16T07:53:30.725Z,23.38
2023-04-16T07:55:57.213Z,23.23
2023-04-16T07:58:23.645Z,22.67
2023-04-16T08:00:51.066Z,20.75
2023-04-16T08:03:18.280Z,24.25
2023-04-16T08:05:44.972Z,16.98
2023-04-16T08:08:11.514Z,22.05
2023-04-16T08:10:38.886Z,21.73
2023-04-16T08:13:05.416Z,21.65
2023-04-16T08:15:32.476Z,21.08
2023-04-16T08:17:59.658Z,23.13
2023-04-16T08:20:26.290Z,21.13
2023-04-16T08:22:54.210Z,22.10
2023-04-16T08:25:20.884Z,11.70
2023-04-16T08:27:47.450Z,17.40
2023-04-16T08:30:15.172Z,20.73
2023-04-16T08:32:41.728Z,20.23
2023-04-16T08:35:08.836Z,17.70
2023-04-16T08:37:35.422Z,22.00
2023-04-16T08:40:02.532Z,19.25
2023-04-16T08:42:34.034Z,18.85
2023-04-16T08:45:06.875Z,19.48
2023-04-16T08:47:35.147Z,18.50
2023-04-16T08:50:04.191Z,19.45
2023-04-16T08:52:31.994Z,20.42
2023-04-16T08:54:58.606Z,20.30
2023-04-16T08:57:30.507Z,20.60
2023-04-16T08:59:58.216Z,22.35
2023-04-16T09:02:26.440Z,22.10
2023-04-16T09:04:53.955Z,21.98
2023-04-16T09:07:21.885Z,23.23
2023-04-16T09:09:49.960Z,23.30
2023-04-16T09:12:17.563Z,20.75
2023-04-16T09:14:49.449Z,15.85
2023-04-16T09:17:16.852Z,21.67
2023-04-16T09:19:43.446Z,21.05
2023-04-16T09:22:10.009Z,18.92
2023-04-16T09:24:38.452Z,23.35
2023-04-16T09:27:05.466Z,19.35
2023-04-16T09:29:39.942Z,20.98
2023-04-16T09:32:09.086Z,17.50
2023-04-16T09:34:55.592Z,19.23
2023-04-16T09:37:22.261Z,16.23
2023-04-16T09:39:58.944Z,19.25
2023-04-16T09:42:32.943Z,23.63
2023-04-16T09:45:01.996Z,23.02
2023-04-16T09:47:55.174Z,19.60
2023-04-16T09:50:21.677Z,21.08
2023-04-16T09:52:51.178Z,21.13
2023-04-16T09:55:23.705Z,22.55
2023-04-16T09:57:58.835Z,20.83
2023-04-16T10:00:25.519Z,20.65
2023-04-16T10:03:03.769Z,22.27
2023-04-16T10:05:30.406Z,20.00
2023-04-16T10:08:00.550Z,19.42
2023-04-16T10:10:27.068Z,13.32
2023-04-16T10:12:55.311Z,22.27
2023-04-16T10:15:22.468Z,22.70
2023-04-16T10:17:50.195Z,20.95
2023-04-16T10:20:18.388Z,19.58
2023-04-16T10:22:45.511Z,18.35
2023-04-16T10:25:12.808Z,21.35
2023-04-16T10:27:40.682Z,16.80
2023-04-16T10:30:09.357Z,19.58
2023-04-16T10:32:36.875Z,18.85
2023-04-16T10:35:03.662Z,19.80
2023-04-16T10:37:31.362Z,19.88
2023-04-16T10:40:00.844Z,18.05
2023-04-16T10:42:27.548Z,20.38
2023-04-16T10:44:54.055Z,16.95
2023-04-16T10:47:24.952Z,19.92
2023-04-16T10:49:51.926Z,19.63
2023-04-16T10:52:18.495Z,25.65
2023-04-16T10:54:46.772Z,20.38
2023-04-16T10:57:17.875Z,18.65
2023-04-16T10:59:45.411Z,17.05
2023-04-16T11:02:17.533Z,21.20
2023-04-16T11:04:48.552Z,20.85
2023-04-16T11:07:17.580Z,18.92
2023-04-16T11:09:47.122Z,18.58
2023-04-16T11:12:16.925Z,19.67
2023-04-16T11:14:43.579Z,18.55
2023-04-16T11:17:10.253Z,13.02
2023-04-16T11:19:38.056Z,19.02
2023-04-16T11:22:05.443Z,19.45
2023-04-16T11:24:32.933Z,16.92
2023-04-16T11:26:59.873Z,18.02
2023-04-16T11:29:26.337Z,19.38
2023-04-16T11:31:54.532Z,18.75
2023-04-16T11:34:21.431Z,17.17
2023-04-16T11:36:49.395Z,17.95
2023-04-16T11:39:16.028Z,20.35
2023-04-16T11:41:47.996Z,16.77
2023-04-16T11:44:25.408Z,17.27
2023-04-16T11:46:53.225Z,17.35
2023-04-16T11:49:32.496Z,17.20
2023-04-16T11:51:59.151Z,16.95
2023-04-16T11:54:26.024Z,18.00
2023-04-16T11:56:53.546Z,18.52
2023-04-16T11:59:23.588Z,19.30
2023-04-16T12:01:51.809Z,16.38
2023-04-16T12:04:29.416Z,16.25
2023-04-16T12:07:05.106Z,14.77
2023-04-16T12:09:31.572Z,17.10
2023-04-16T12:11:58.041Z,17.73
2023-04-16T12:14:24.491Z,19.30
2023-04-16T12:16:51.081Z,15.82
2023-04-16T12:19:18.288Z,17.50
2023-04-16T12:21:47.074Z,16.40
2023-04-16T12:24:15.698Z,17.30
2023-04-16T12:26:48.661Z,16.92
2023-04-16T12:29:16.442Z,13.50
2023-04-16T12:31:43.290Z,15.05
2023-04-16T12:34:12.888Z,12.25
2023-04-16T12:36:39.678Z,14.80
2023-04-16T12:39:06.286Z,15.85
2023-04-16T12:41:36.339Z,14.93
2023-04-16T12:44:14.006Z,14.85
2023-04-16T12:46:42.039Z,15.45
2023-04-16T12:49:10.164Z,14.18
2023-04-16T12:51:38.406Z,16.10
2023-04-16T12:54:07.319Z,14.73
2023-04-16T12:56:34.265Z,13.73
2023-04-16T12:59:00.759Z,15.35
2023-04-16T13:01:27.300Z,13.10
2023-04-16T13:03:54.166Z,17.92
2023-04-16T13:06:21.084Z,13.88
2023-04-16T13:08:47.627Z,16.48
2023-04-16T13:11:14.379Z,13.52
2023-04-16T13:13:40.948Z,16.35
2023-04-16T13:16:08.556Z,15.27
2023-04-16T13:18:40.140Z,17.08
2023-04-16T13:21:06.641Z,16.05
2023-04-16T13:23:33.228Z,14.23
2023-04-16T13:25:59.727Z,16.23
2023-04-16T13:28:26.441Z,16.73
2023-04-16T13:30:53.258Z,11.60
2023-04-16T13:33:20.906Z,14.77
2023-04-16T13:35:50.623Z,12.50
2023-04-16T13:38:17.224Z,14.45
2023-04-16T13:40:44.540Z,17.35
2023-04-16T13:43:11.458Z,16.17
2023-04-16T13:45:37.950Z,15.32
2023-04-16T13:48:04.760Z,16.02
2023-04-16T13:50:31.319Z,15.63
2023-04-16T13:52:57.889Z,17.33
2023-04-16T13:55:24.494Z,17.00
2023-04-16T13:57:52.492Z,16.25
2023-04-16T14:00:19.607Z,15.77
2023-04-16T14:02:46.192Z,14.95
2023-04-16T14:05:12.849Z,15.07
2023-04-16T14:07:39.381Z,15.65
2023-04-16T14:10:06.519Z,15.98
2023-04-16T14:12:33.177Z,16.70
2023-04-16T14:14:59.753Z,14.15
2023-04-16T14:17:26.281Z,15.38
2023-04-16T14:19:52.799Z,15.65
2023-04-16T14:22:19.355Z,14.68
2023-04-16T14:24:46.069Z,16.00
2023-04-16T14:27:12.582Z,15.75
2023-04-16T14:29:39.180Z,12.63
2023-04-16T14:32:06.736Z,13.50
2023-04-16T14:34:33.274Z,15.88
2023-04-16T14:36:59.988Z,13.48
2023-04-16T14:39:27.051Z,14.00
2023-04-16T14:41:53.627Z,14.57
2023-04-16T14:44:20.198Z,12.98
2023-04-16T14:46:46.733Z,12.90
2023-04-16T14:49:14.456Z,13.55
2023-04-16T14:51:41.820Z,12.57
2023-04-16T14:54:08.376Z,12.93
2023-04-16T14:56:34.845Z,13.38
2023-04-16T14:59:01.325Z,14.07
2023-04-16T15:01:27.906Z,13.35
2023-04-16T15:03:59.236Z,12.07
2023-04-16T15:06:28.050Z,12.73
2023-04-16T15:08:54.588Z,14.55
2023-04-16T15:11:21.255Z,13.55
2023-04-16T15:13:47.712Z,12.63
2023-04-16T15:16:14.335Z,14.00
2023-04-16T15:18:40.914Z,13.02
2023-04-16T15:21:07.400Z,15.32
2023-04-16T15:23:33.912Z,13.27
2023-04-16T15:26:00.749Z,15.13
2023-04-16T15:28:27.272Z,12.65
2023-04-16T15:30:53.835Z,14.25
2023-04-16T15:33:23.418Z,13.70
2023-04-16T15:35:51.640Z,11.70
2023-04-16T15:38:21.257Z,13.02
2023-04-16T15:40:48.044Z,12.25
2023-04-16T15:43:15.636Z,12.80
2023-04-16T15:45:42.107Z,11.15
2023-04-16T15:48:08.970Z,11.77
2023-04-16T15:50:35.815Z,12.43
2023-04-16T15:53:03.115Z,12.10
2023-04-16T15:55:29.655Z,12.40
2023-04-16T15:57:56.151Z,11.07
2023-04-16T16:00:22.978Z,14.77
2023-04-16T16:02:49.606Z,11.80
2023-04-16T16:05:16.796Z,12.73
2023-04-16T16:07:43.862Z,12.02
2023-04-16T16:10:11.183Z,11.95
2023-04-16T16:12:37.839Z,13.57
2023-04-16T16:15:05.016Z,12.90
2023-04-16T16:17:31.749Z,13.85
2023-04-16T16:19:59.108Z,12.80
2023-04-16T16:22:26.025Z,11.57
2023-04-16T16:24:56.389Z,13.45
2023-04-16T16:27:23.348Z,12.63
2023-04-16T16:29:50.124Z,11.40
2023-04-16T16:32:16.720Z,11.70
2023-04-16T16:34:43.312Z,11.45
2023-04-16T16:37:09.790Z,11.27
2023-04-16T16:39:38.474Z,13.35
2023-04-16T16:42:05.932Z,12.88
2023-04-16T16:44:32.423Z,13.35
2023-04-16T16:46:59.626Z,12.93
2023-04-16T16:49:26.142Z,13.50
2023-04-16T16:51:52.632Z,13.52
2023-04-16T16:54:19.090Z,13.60
2023-04-16T16:56:45.557Z,13.68
2023-04-16T16:59:14.927Z,13.02
2023-04-16T17:01:41.414Z,11.70
2023-04-16T17:04:08.050Z,8.68
2023-04-16T17:06:34.732Z,12.50
2023-04-16T17:09:01.248Z,11.65
2023-04-16T17:11:29.283Z,13.73
2023-04-16T17:13:55.911Z,12.05
2023-04-16T17:16:23.875Z,12.23
2023-04-16T17:18:50.422Z,12.35
2023-04-16T17:21:16.987Z,12.50
2023-04-16T17:23:43.508Z,14.43
2023-04-16T17:26:10.048Z,13.93
2023-04-16T17:28:36.568Z,15.57
2023-04-16T17:31:03.634Z,14.35
2023-04-16T17:33:30.127Z,16.13
2023-04-16T17:35:56.664Z,16.60
2023-04-16T17:38:23.179Z,18.38
2023-04-16T17:40:49.810Z,14.45
2023-04-16T17:43:16.327Z,15.40
2023-04-16T17:45:42.858Z,16.65
2023-04-16T17:48:09.528Z,15.15
2023-04-16T17:50:38.208Z,16.30
2023-04-16T17:53:05.939Z,19.08
2023-04-16T17:55:32.441Z,19.55
2023-04-16T17:58:00.350Z,17.45
2023-04-16T18:00:26.888Z,20.45
2023-04-16T18:02:54.222Z,21.10
2023-04-16T18:05:21.231Z,20.42
2023-04-16T18:07:48.295Z,18.70
2023-04-16T18:10:14.786Z,18.08
2023-04-16T18:12:41.229Z,18.15
2023-04-16T18:15:08.412Z,19.42
2023-04-16T18:17:35.205Z,18.77
2023-04-16T18:20:01.758Z,19.17
2023-04-16T18:22:28.590Z,18.60
2023-04-16T18:24:55.319Z,19.80
2023-04-16T18:27:22.001Z,19.65
2023-04-16T18:29:49.515Z,20.20
2023-04-16T18:32:16.374Z,18.98
2023-04-16T18:34:43.068Z,22.33
2023-04-16T18:37:10.461Z,17.95
2023-04-16T18:39:37.328Z,17.65
2023-04-16T18:42:03.988Z,17.55
2023-04-16T18:44:30.543Z,17.20
2023-04-16T18:46:57.114Z,18.75
2023-04-16T18:49:23.890Z,17.05
2023-04-16T18:51:50.350Z,17.30
2023-04-16T18:54:16.948Z,17.88
2023-04-16T18:56:43.411Z,19.88
2023-04-16T18:59:10.147Z,16.55
2023-04-16T19:01:36.869Z,17.52
2023-04-16T19:04:03.488Z,15.43
2023-04-16T19:06:30.082Z,16.10
2023-04-16T19:08:56.574Z,16.02
2023-04-16T19:11:23.047Z,16.50
2023-04-16T19:13:49.536Z,18.38
2023-04-16T19:16:16.903Z,15.88
2023-04-16T19:18:43.474Z,16.23
2023-04-16T19:21:10.866Z,15.73
2023-04-16T19:23:37.497Z,16.75
2023-04-16T19:26:03.995Z,17.30
2023-04-16T19:28:31.312Z,15.57
2023-04-16T19:30:57.768Z,15.25
2023-04-16T19:33:24.334Z,16.27
2023-04-16T19:35:50.899Z,17.50
2023-04-16T19:38:17.376Z,17.50
2023-04-16T19:40:45.788Z,16.25
2023-04-16T19:43:12.618Z,16.55
2023-04-16T19:45:46.525Z,15.85
2023-04-16T19:48:13.290Z,15.95
2023-04-16T19:50:41.271Z,15.70
2023-04-16T19:53:08.883Z,15.68
2023-04-16T19:55:35.470Z,15.10
2023-04-16T19:58:06.138Z,16.25
2023-04-16T20:00:37.212Z,15.90
2023-04-16T20:03:04.882Z,15.48
2023-04-16T20:05:31.391Z,16.42
2023-04-16T20:07:57.882Z,14.98
2023-04-16T20:10:24.499Z,14.25
2023-04-16T20:12:51.371Z,16.08
2023-04-16T20:15:18.608Z,16.02
2023-04-16T20:17:45.197Z,13.70
2023-04-16T20:20:12.069Z,14.85
2023-04-16T20:22:42.199Z,15.57
2023-04-16T20:25:09.283Z,14.85
2023-04-16T20:27:35.853Z,12.80
2023-04-16T20:30:02.686Z,13.70
2023-04-16T20:32:29.161Z,14.10
2023-04-16T20:34:55.690Z,14.52
2023-04-16T20:37:22.468Z,14.65
2023-04-16T20:39:50.204Z,15.30
2023-04-16T20:42:16.751Z,15.15
2023-04-16T20:44:50.190Z,15.57
2023-04-16T20:47:17.248Z,15.02
2023-04-16T20:49:47.460Z,15.70
2023-04-16T20:52:14.227Z,15.18
2023-04-16T20:54:40.906Z,17.27
2023-04-16T20:57:07.730Z,17.20
2023-04-16T20:59:34.382Z,17.58
2023-04-16T21:02:01.013Z,16.88
2023-04-16T21:04:27.605Z,17.90
2023-04-16T21:06:54.248Z,17.60
2023-04-16T21:09:20.884Z,18.02
2023-04-16T21:11:47.808Z,17.58
2023-04-16T21:14:14.578Z,19.02
2023-04-16T21:16:41.026Z,19.70
2023-04-16T21:19:08.746Z,19.33
2023-04-16T21:21:35.451Z,18.83
2023-04-16T21:24:02.170Z,20.20
2023-04-16T21:26:28.630Z,20.95
2023-04-16T21:28:55.483Z,19.08
2023-04-16T21:31:22.042Z,20.30
2023-04-16T21:33:48.583Z,21.63
2023-04-16T21:36:15.481Z,21.48
2023-04-16T21:38:41.921Z,22.05
2023-04-16T21:41:08.425Z,21.25
2023-04-16T21:43:34.882Z,21.25
2023-04-16T21:46:01.381Z,21.33
2023-04-16T21:48:28.514Z,23.85
2023-04-16T21:50:59.907Z,22.70
2023-04-16T21:53:28.075Z,22.20
2023-04-16T21:55:54.678Z,23.15
2023-04-16T21:58:21.117Z,23.70
2023-04-16T22:00:47.605Z,22.15
2023-04-16T22:03:17.459Z,20.23
2023-04-16T22:05:45.873Z,21.38
2023-04-16T22:08:24.007Z,23.02
2023-04-16T22:10:51.546Z,20.95
2023-04-16T22:13:18.182Z,25.02
2023-04-16T22:15:44.713Z,23.98
2023-04-16T22:18:11.448Z,24.95
2023-04-16T22:20:39.213Z,24.75
2023-04-16T22:23:08.543Z,23.23
2023-04-16T22:25:35.219Z,21.90
2023-04-16T22:28:01.837Z,23.45
2023-04-16T22:30:28.401Z,23.83
2023-04-16T22:32:55.091Z,24.95
2023-04-16T22:35:21.631Z,24.25
2023-04-16T22:37:48.082Z,24.55
2023-04-16T22:40:14.941Z,24.25
2023-04-16T22:42:41.536Z,24.48
2023-04-16T22:45:08.815Z,23.17
2023-04-16T22:47:35.372Z,23.23
2023-04-16T22:50:03.201Z,24.70
2023-04-16T22:52:29.680Z,26.27
2023-04-16T22:54:56.297Z,25.30
2023-04-16T22:57:25.392Z,24.55
2023-04-16T22:59:53.023Z,25.95
2023-04-16T23:02:20.807Z,22.88
2023-04-16T23:04:47.973Z,23.40
2023-04-16T23:07:15.528Z,25.02
2023-04-16T23:09:42.571Z,21.83
2023-04-16T23:12:09.183Z,24.73
2023-04-16T23:14:36.934Z,27.00
2023-04-16T23:17:03.688Z,24.77
2023-04-16T23:19:31.242Z,27.83
2023-04-16T23:21:57.954Z,25.65
2023-04-16T23:24:24.525Z,26.33
2023-04-16T23:26:52.451Z,25.45
2023-04-16T23:29:19.636Z,25.65
2023-04-16T23:31:46.241Z,25.80
2023-04-16T23:34:12.714Z,26.13
2023-04-16T23:36:39.340Z,26.85
2023-04-16T23:39:05.809Z,25.42
2023-04-16T23:41:32.421Z,26.33
2023-04-16T23:43:59.025Z,24.92
2023-04-16T23:46:26.150Z,25.23
2023-04-16T23:48:52.775Z,25.65
2023-04-16T23:51:19.235Z,25.33
2023-04-16T23:53:45.686Z,24.30
2023-04-16T23:56:12.224Z,24.77
2023-04-16T23:58:38.668Z,25.27
